sensor_id;sensor_type;location;lat;lon;timestamp;temperature;humidity
11005;DHT22;5555;59.622;16.556;2022-08-01T00:00:30;18.00;99.90
11005;DHT22;5555;59.622;16.556;2022-08-01T00:02:57;18.10;99.90
11005;DHT22;5555;59.622;16.556;2022-08-01T00:05:22;18.00;99.90
11005;DHT22;5555;59.622;16.556;2022-08-01T00:07:48;18.00;99.90
11005;DHT22;5555;59.622;16.556;2022-08-01T00:10:15;18.00;99.90
11005;DHT22;5555;59.622;16.556;2022-08-01T00:12:42;18.00;99.90
11005;DHT22;5555;59.622;16.556;2022-08-01T00:15:10;18.00;99.90
11005;DHT22;5555;59.622;16.556;2022-08-01T00:17:36;18.00;99.90
11005;DHT22;5555;59.622;16.556;2022-08-01T00:20:03;18.00;99.90
11005;DHT22;5555;59.622;16.556;2022-08-01T00:22:33;18.00;99.90
11005;DHT22;5555;59.622;16.556;2022-08-01T00:24:59;17.90;99.90
11005;DHT22;5555;59.622;16.556;2022-08-01T00:27:25;17.90;99.90
11005;DHT22;5555;59.622;16.556;2022-08-01T00:29:51;17.90;99.90
11005;DHT22;5555;59.622;16.556;2022-08-01T00:32:17;17.90;99.90
11005;DHT22;5555;59.622;16.556;2022-08-01T00:34:42;17.80;99.90
11005;DHT22;5555;59.622;16.556;2022-08-01T00:37:08;17.80;99.90
11005;DHT22;5555;59.622;16.556;2022-08-01T00:39:34;17.80;99.90
11005;DHT22;5555;59.622;16.556;2022-08-01T00:42:05;17.80;99.90
11005;DHT22;5555;59.622;16.556;2022-08-01T00:44:30;17.80;99.90
11005;DHT22;5555;59.622;16.556;2022-08-01T00:46:56;17.80;99.90
11005;DHT22;5555;59.622;16.556;2022-08-01T00:49:22;17.70;99.90
11005;DHT22;5555;59.622;16.556;2022-08-01T00:51:47;17.70;99.90
11005;DHT22;5555;59.622;16.556;2022-08-01T00:54:14;17.70;99.90
11005;DHT22;5555;59.622;16.556;2022-08-01T00:56:40;17.70;99.90
11005;DHT22;5555;59.622;16.556;2022-08-01T00:59:07;17.70;99.90
11005;DHT22;5555;59.622;16.556;2022-08-01T01:01:33;17.70;99.90
11005;DHT22;5555;59.622;16.556;2022-08-01T01:03:58;17.70;99.90
11005;DHT22;5555;59.622;16.556;2022-08-01T01:06:41;17.70;99.90
11005;DHT22;5555;59.622;16.556;2022-08-01T01:12:59;17.60;99.90
11005;DHT22;5555;59.622;16.556;2022-08-01T01:18:41;17.50;99.90
11005;DHT22;5555;59.622;16.556;2022-08-01T01:20:44;17.60;99.90
11005;DHT22;5555;59.622;16.556;2022-08-01T01:27:01;17.60;99.90
11005;DHT22;5555;59.622;16.556;2022-08-01T01:29:28;17.60;99.90
11005;DHT22;5555;59.622;16.556;2022-08-01T01:32:06;17.60;99.90
11005;DHT22;5555;59.622;16.556;2022-08-01T01:34:38;17.60;99.90
11005;DHT22;5555;59.622;16.556;2022-08-01T01:37:09;17.60;99.90
11005;DHT22;5555;59.622;16.556;2022-08-01T01:39:37;17.50;99.90
11005;DHT22;5555;59.622;16.556;2022-08-01T01:42:06;17.50;99.90
11005;DHT22;5555;59.622;16.556;2022-08-01T01:44:32;17.40;99.90
11005;DHT22;5555;59.622;16.556;2022-08-01T01:46:59;17.40;99.90
11005;DHT22;5555;59.622;16.556;2022-08-01T01:49:27;17.30;99.90
11005;DHT22;5555;59.622;16.556;2022-08-01T01:51:55;17.30;99.90
11005;DHT22;5555;59.622;16.556;2022-08-01T01:54:33;17.30;99.90
11005;DHT22;5555;59.622;16.556;2022-08-01T01:57:00;17.30;99.90
11005;DHT22;5555;59.622;16.556;2022-08-01T01:59:29;17.30;99.90
11005;DHT22;5555;59.622;16.556;2022-08-01T02:01:59;17.30;99.90
11005;DHT22;5555;59.622;16.556;2022-08-01T02:04:27;17.30;99.90
11005;DHT22;5555;59.622;16.556;2022-08-01T02:06:54;17.40;99.90
11005;DHT22;5555;59.622;16.556;2022-08-01T02:09:21;17.40;99.90
11005;DHT22;5555;59.622;16.556;2022-08-01T02:11:49;17.40;99.90
11005;DHT22;5555;59.622;16.556;2022-08-01T02:14:17;17.40;99.90
11005;DHT22;5555;59.622;16.556;2022-08-01T02:16:46;17.30;99.90
11005;DHT22;5555;59.622;16.556;2022-08-01T02:19:13;17.30;99.90
11005;DHT22;5555;59.622;16.556;2022-08-01T02:21:48;17.40;99.90
11005;DHT22;5555;59.622;16.556;2022-08-01T02:24:24;17.40;99.90
11005;DHT22;5555;59.622;16.556;2022-08-01T02:26:54;17.40;99.90
11005;DHT22;5555;59.622;16.556;2022-08-01T02:29:27;17.40;99.90
11005;DHT22;5555;59.622;16.556;2022-08-01T02:31:57;17.40;99.90
11005;DHT22;5555;59.622;16.556;2022-08-01T02:34:25;17.40;99.90
11005;DHT22;5555;59.622;16.556;2022-08-01T02:36:54;17.40;99.90
11005;DHT22;5555;59.622;16.556;2022-08-01T02:39:22;17.30;99.90
11005;DHT22;5555;59.622;16.556;2022-08-01T02:41:50;17.30;99.90
11005;DHT22;5555;59.622;16.556;2022-08-01T02:44:28;17.40;99.90
11005;DHT22;5555;59.622;16.556;2022-08-01T02:47:01;17.30;99.90
11005;DHT22;5555;59.622;16.556;2022-08-01T02:49:50;17.40;99.90
11005;DHT22;5555;59.622;16.556;2022-08-01T02:52:19;17.30;99.90
11005;DHT22;5555;59.622;16.556;2022-08-01T02:54:48;17.40;99.90
11005;DHT22;5555;59.622;16.556;2022-08-01T02:57:15;17.40;99.90
11005;DHT22;5555;59.622;16.556;2022-08-01T02:59:42;17.30;99.90
11005;DHT22;5555;59.622;16.556;2022-08-01T03:02:10;17.30;99.90
11005;DHT22;5555;59.622;16.556;2022-08-01T03:04:38;17.30;99.90
11005;DHT22;5555;59.622;16.556;2022-08-01T03:07:06;17.20;99.90
11005;DHT22;5555;59.622;16.556;2022-08-01T03:09:36;17.30;99.90
11005;DHT22;5555;59.622;16.556;2022-08-01T03:12:06;17.30;99.90
11005;DHT22;5555;59.622;16.556;2022-08-01T03:14:35;17.30;99.90
11005;DHT22;5555;59.622;16.556;2022-08-01T03:17:04;17.30;99.90
11005;DHT22;5555;59.622;16.556;2022-08-01T03:19:31;17.30;99.90
11005;DHT22;5555;59.622;16.556;2022-08-01T03:21:59;17.30;99.90
11005;DHT22;5555;59.622;16.556;2022-08-01T03:24:26;17.20;99.90
11005;DHT22;5555;59.622;16.556;2022-08-01T03:26:53;17.20;99.90
11005;DHT22;5555;59.622;16.556;2022-08-01T03:29:25;17.20;99.90
11005;DHT22;5555;59.622;16.556;2022-08-01T03:31:51;17.20;99.90
11005;DHT22;5555;59.622;16.556;2022-08-01T03:34:17;17.20;99.90
11005;DHT22;5555;59.622;16.556;2022-08-01T03:36:57;17.30;99.90
11005;DHT22;5555;59.622;16.556;2022-08-01T03:39:28;17.30;99.90
11005;DHT22;5555;59.622;16.556;2022-08-01T03:42:01;17.30;99.90
11005;DHT22;5555;59.622;16.556;2022-08-01T03:44:33;17.30;99.90
11005;DHT22;5555;59.622;16.556;2022-08-01T03:47:06;17.40;99.90
11005;DHT22;5555;59.622;16.556;2022-08-01T03:49:35;17.40;99.90
11005;DHT22;5555;59.622;16.556;2022-08-01T03:52:04;17.40;99.90
11005;DHT22;5555;59.622;16.556;2022-08-01T03:54:35;17.40;99.90
11005;DHT22;5555;59.622;16.556;2022-08-01T03:57:02;17.40;99.90
11005;DHT22;5555;59.622;16.556;2022-08-01T03:59:28;17.40;99.90
11005;DHT22;5555;59.622;16.556;2022-08-01T04:01:55;17.50;99.90
11005;DHT22;5555;59.622;16.556;2022-08-01T04:04:21;17.40;99.90
11005;DHT22;5555;59.622;16.556;2022-08-01T04:06:47;17.50;99.90
11005;DHT22;5555;59.622;16.556;2022-08-01T04:09:16;17.50;99.90
11005;DHT22;5555;59.622;16.556;2022-08-01T04:11:43;17.50;99.90
11005;DHT22;5555;59.622;16.556;2022-08-01T04:14:08;17.50;99.90
11005;DHT22;5555;59.622;16.556;2022-08-01T04:16:34;17.50;99.90
11005;DHT22;5555;59.622;16.556;2022-08-01T04:19:00;17.50;99.90
11005;DHT22;5555;59.622;16.556;2022-08-01T04:21:26;17.50;99.90
11005;DHT22;5555;59.622;16.556;2022-08-01T04:23:57;17.60;99.90
11005;DHT22;5555;59.622;16.556;2022-08-01T04:26:25;17.60;99.90
11005;DHT22;5555;59.622;16.556;2022-08-01T04:28:52;17.70;99.90
11005;DHT22;5555;59.622;16.556;2022-08-01T04:31:21;17.70;99.90
11005;DHT22;5555;59.622;16.556;2022-08-01T04:33:49;17.80;99.90
11005;DHT22;5555;59.622;16.556;2022-08-01T04:36:18;17.80;99.90
11005;DHT22;5555;59.622;16.556;2022-08-01T04:38:46;17.90;99.90
11005;DHT22;5555;59.622;16.556;2022-08-01T04:41:14;17.90;99.90
11005;DHT22;5555;59.622;16.556;2022-08-01T04:43:41;18.00;99.90
11005;DHT22;5555;59.622;16.556;2022-08-01T04:46:08;18.10;99.90
11005;DHT22;5555;59.622;16.556;2022-08-01T04:48:36;18.10;99.90
11005;DHT22;5555;59.622;16.556;2022-08-01T04:51:03;18.20;99.90
11005;DHT22;5555;59.622;16.556;2022-08-01T04:53:29;18.10;99.90
11005;DHT22;5555;59.622;16.556;2022-08-01T04:55:58;18.10;99.90
11005;DHT22;5555;59.622;16.556;2022-08-01T04:58:23;18.10;99.90
11005;DHT22;5555;59.622;16.556;2022-08-01T05:00:49;18.20;99.90
11005;DHT22;5555;59.622;16.556;2022-08-01T05:03:15;18.10;99.90
11005;DHT22;5555;59.622;16.556;2022-08-01T05:05:41;18.10;99.90
11005;DHT22;5555;59.622;16.556;2022-08-01T05:08:07;18.10;99.90
11005;DHT22;5555;59.622;16.556;2022-08-01T05:10:33;18.10;99.90
11005;DHT22;5555;59.622;16.556;2022-08-01T05:12:58;18.10;99.90
11005;DHT22;5555;59.622;16.556;2022-08-01T05:15:24;18.00;99.90
11005;DHT22;5555;59.622;16.556;2022-08-01T05:17:50;17.90;99.90
11005;DHT22;5555;59.622;16.556;2022-08-01T05:20:16;18.00;99.90
11005;DHT22;5555;59.622;16.556;2022-08-01T05:22:41;18.00;99.90
11005;DHT22;5555;59.622;16.556;2022-08-01T05:25:08;18.10;99.90
11005;DHT22;5555;59.622;16.556;2022-08-01T05:27:33;18.10;99.90
11005;DHT22;5555;59.622;16.556;2022-08-01T05:30:06;18.10;99.90
11005;DHT22;5555;59.622;16.556;2022-08-01T05:32:31;18.20;99.90
11005;DHT22;5555;59.622;16.556;2022-08-01T05:34:57;18.30;99.90
11005;DHT22;5555;59.622;16.556;2022-08-01T05:37:23;18.30;99.90
11005;DHT22;5555;59.622;16.556;2022-08-01T05:39:48;18.30;99.90
11005;DHT22;5555;59.622;16.556;2022-08-01T05:42:14;18.30;99.90
11005;DHT22;5555;59.622;16.556;2022-08-01T05:44:40;18.40;99.90
11005;DHT22;5555;59.622;16.556;2022-08-01T05:47:05;18.30;99.90
11005;DHT22;5555;59.622;16.556;2022-08-01T05:49:31;18.40;99.90
11005;DHT22;5555;59.622;16.556;2022-08-01T05:51:57;18.70;99.90
11005;DHT22;5555;59.622;16.556;2022-08-01T05:54:22;18.80;99.90
11005;DHT22;5555;59.622;16.556;2022-08-01T05:56:48;19.00;99.90
11005;DHT22;5555;59.622;16.556;2022-08-01T05:59:14;18.90;99.90
11005;DHT22;5555;59.622;16.556;2022-08-01T06:01:39;18.90;99.90
11005;DHT22;5555;59.622;16.556;2022-08-01T06:04:05;18.80;99.90
11005;DHT22;5555;59.622;16.556;2022-08-01T06:06:30;18.90;99.90
11005;DHT22;5555;59.622;16.556;2022-08-01T06:08:56;19.00;99.90
11005;DHT22;5555;59.622;16.556;2022-08-01T06:11:22;19.10;99.90
11005;DHT22;5555;59.622;16.556;2022-08-01T06:13:47;19.10;99.90
11005;DHT22;5555;59.622;16.556;2022-08-01T06:16:13;19.10;99.90
11005;DHT22;5555;59.622;16.556;2022-08-01T06:18:39;18.90;99.90
11005;DHT22;5555;59.622;16.556;2022-08-01T06:21:04;18.80;99.90
11005;DHT22;5555;59.622;16.556;2022-08-01T06:23:30;18.80;99.90
11005;DHT22;5555;59.622;16.556;2022-08-01T06:25:56;18.60;99.90
11005;DHT22;5555;59.622;16.556;2022-08-01T06:28:23;18.80;99.90
11005;DHT22;5555;59.622;16.556;2022-08-01T06:30:49;19.10;99.90
11005;DHT22;5555;59.622;16.556;2022-08-01T06:33:14;19.10;99.90
11005;DHT22;5555;59.622;16.556;2022-08-01T06:35:40;19.00;99.90
11005;DHT22;5555;59.622;16.556;2022-08-01T06:38:06;19.10;99.90
11005;DHT22;5555;59.622;16.556;2022-08-01T06:40:31;19.20;99.90
11005;DHT22;5555;59.622;16.556;2022-08-01T06:42:57;19.30;99.90
11005;DHT22;5555;59.622;16.556;2022-08-01T06:45:23;19.40;99.90
11005;DHT22;5555;59.622;16.556;2022-08-01T06:47:51;19.50;99.90
11005;DHT22;5555;59.622;16.556;2022-08-01T06:50:17;19.60;99.90
11005;DHT22;5555;59.622;16.556;2022-08-01T06:52:42;19.70;99.90
11005;DHT22;5555;59.622;16.556;2022-08-01T06:55:08;19.90;99.90
11005;DHT22;5555;59.622;16.556;2022-08-01T06:57:34;19.80;99.90
11005;DHT22;5555;59.622;16.556;2022-08-01T07:00:07;19.70;99.90
11005;DHT22;5555;59.622;16.556;2022-08-01T07:02:34;19.80;99.90
11005;DHT22;5555;59.622;16.556;2022-08-01T07:05:01;19.70;99.90
11005;DHT22;5555;59.622;16.556;2022-08-01T07:07:29;19.70;99.90
11005;DHT22;5555;59.622;16.556;2022-08-01T07:09:55;19.70;99.90
11005;DHT22;5555;59.622;16.556;2022-08-01T07:12:20;19.90;99.90
11005;DHT22;5555;59.622;16.556;2022-08-01T07:14:46;20.10;99.90
11005;DHT22;5555;59.622;16.556;2022-08-01T07:17:12;20.00;99.90
11005;DHT22;5555;59.622;16.556;2022-08-01T07:19:37;20.10;99.90
11005;DHT22;5555;59.622;16.556;2022-08-01T07:22:03;20.00;99.90
11005;DHT22;5555;59.622;16.556;2022-08-01T07:24:29;19.80;99.90
11005;DHT22;5555;59.622;16.556;2022-08-01T07:26:55;19.90;99.90
11005;DHT22;5555;59.622;16.556;2022-08-01T07:29:23;19.90;99.90
11005;DHT22;5555;59.622;16.556;2022-08-01T07:31:53;19.80;99.90
11005;DHT22;5555;59.622;16.556;2022-08-01T07:34:19;19.70;99.90
11005;DHT22;5555;59.622;16.556;2022-08-01T07:36:45;19.70;99.90
11005;DHT22;5555;59.622;16.556;2022-08-01T07:39:11;19.80;99.90
11005;DHT22;5555;59.622;16.556;2022-08-01T07:41:36;19.70;99.90
11005;DHT22;5555;59.622;16.556;2022-08-01T07:44:02;20.00;99.90
11005;DHT22;5555;59.622;16.556;2022-08-01T07:46:28;19.90;99.90
11005;DHT22;5555;59.622;16.556;2022-08-01T07:48:55;20.00;99.90
11005;DHT22;5555;59.622;16.556;2022-08-01T07:51:21;20.00;99.90
11005;DHT22;5555;59.622;16.556;2022-08-01T07:53:47;20.20;99.90
11005;DHT22;5555;59.622;16.556;2022-08-01T07:56:12;20.20;99.90
11005;DHT22;5555;59.622;16.556;2022-08-01T07:58:38;20.40;99.90
11005;DHT22;5555;59.622;16.556;2022-08-01T08:01:03;20.50;99.90
11005;DHT22;5555;59.622;16.556;2022-08-01T08:03:29;20.40;99.90
11005;DHT22;5555;59.622;16.556;2022-08-01T08:05:56;20.40;99.90
11005;DHT22;5555;59.622;16.556;2022-08-01T08:08:21;20.40;99.90
11005;DHT22;5555;59.622;16.556;2022-08-01T08:10:47;20.70;99.90
11005;DHT22;5555;59.622;16.556;2022-08-01T08:13:13;20.50;99.90
11005;DHT22;5555;59.622;16.556;2022-08-01T08:15:38;20.40;99.90
11005;DHT22;5555;59.622;16.556;2022-08-01T08:18:04;20.50;99.90
11005;DHT22;5555;59.622;16.556;2022-08-01T08:20:30;20.60;99.90
11005;DHT22;5555;59.622;16.556;2022-08-01T08:22:56;20.70;99.90
11005;DHT22;5555;59.622;16.556;2022-08-01T08:25:25;20.90;99.90
11005;DHT22;5555;59.622;16.556;2022-08-01T08:27:51;21.00;99.90
11005;DHT22;5555;59.622;16.556;2022-08-01T08:30:17;21.10;99.90
11005;DHT22;5555;59.622;16.556;2022-08-01T08:32:43;21.20;99.90
11005;DHT22;5555;59.622;16.556;2022-08-01T08:35:09;21.30;99.90
11005;DHT22;5555;59.622;16.556;2022-08-01T08:37:36;21.30;99.90
11005;DHT22;5555;59.622;16.556;2022-08-01T08:40:03;21.70;99.90
11005;DHT22;5555;59.622;16.556;2022-08-01T08:42:29;21.70;99.90
11005;DHT22;5555;59.622;16.556;2022-08-01T08:44:54;21.90;99.90
11005;DHT22;5555;59.622;16.556;2022-08-01T08:47:22;21.70;99.90
11005;DHT22;5555;59.622;16.556;2022-08-01T08:49:50;21.70;99.90
11005;DHT22;5555;59.622;16.556;2022-08-01T08:52:19;21.80;99.90
11005;DHT22;5555;59.622;16.556;2022-08-01T08:54:46;22.10;99.90
11005;DHT22;5555;59.622;16.556;2022-08-01T08:57:13;22.00;99.90
11005;DHT22;5555;59.622;16.556;2022-08-01T08:59:40;22.30;99.90
11005;DHT22;5555;59.622;16.556;2022-08-01T09:02:07;22.40;99.90
11005;DHT22;5555;59.622;16.556;2022-08-01T09:04:35;22.90;99.90
11005;DHT22;5555;59.622;16.556;2022-08-01T09:07:04;22.90;99.90
11005;DHT22;5555;59.622;16.556;2022-08-01T09:09:30;22.90;99.90
11005;DHT22;5555;59.622;16.556;2022-08-01T09:11:56;23.50;99.90
11005;DHT22;5555;59.622;16.556;2022-08-01T09:14:22;23.90;99.90
11005;DHT22;5555;59.622;16.556;2022-08-01T09:17:09;23.70;99.90
11005;DHT22;5555;59.622;16.556;2022-08-01T09:19:43;23.80;99.90
11005;DHT22;5555;59.622;16.556;2022-08-01T09:22:14;23.60;99.90
11005;DHT22;5555;59.622;16.556;2022-08-01T09:25:00;23.30;99.90
11005;DHT22;5555;59.622;16.556;2022-08-01T09:27:27;23.40;99.90
11005;DHT22;5555;59.622;16.556;2022-08-01T09:29:53;23.40;99.90
11005;DHT22;5555;59.622;16.556;2022-08-01T09:32:22;23.30;99.90
11005;DHT22;5555;59.622;16.556;2022-08-01T09:34:48;23.20;99.90
11005;DHT22;5555;59.622;16.556;2022-08-01T09:37:14;22.90;99.90
11005;DHT22;5555;59.622;16.556;2022-08-01T09:39:43;23.00;99.90
11005;DHT22;5555;59.622;16.556;2022-08-01T09:42:25;23.00;99.90
11005;DHT22;5555;59.622;16.556;2022-08-01T09:44:51;23.00;99.90
11005;DHT22;5555;59.622;16.556;2022-08-01T09:47:19;23.10;99.90
11005;DHT22;5555;59.622;16.556;2022-08-01T09:49:55;23.20;99.90
11005;DHT22;5555;59.622;16.556;2022-08-01T09:52:24;22.60;99.90
11005;DHT22;5555;59.622;16.556;2022-08-01T09:54:57;22.60;99.90
11005;DHT22;5555;59.622;16.556;2022-08-01T09:57:24;22.40;99.90
11005;DHT22;5555;59.622;16.556;2022-08-01T09:59:52;22.10;99.90
11005;DHT22;5555;59.622;16.556;2022-08-01T10:02:33;22.00;99.90
11005;DHT22;5555;59.622;16.556;2022-08-01T10:05:03;21.90;99.90
11005;DHT22;5555;59.622;16.556;2022-08-01T10:07:29;22.10;99.90
11005;DHT22;5555;59.622;16.556;2022-08-01T10:09:55;22.10;99.90
11005;DHT22;5555;59.622;16.556;2022-08-01T10:12:22;22.20;99.90
11005;DHT22;5555;59.622;16.556;2022-08-01T10:14:51;22.20;99.90
11005;DHT22;5555;59.622;16.556;2022-08-01T10:17:24;22.40;99.90
11005;DHT22;5555;59.622;16.556;2022-08-01T10:19:50;22.60;99.90
11005;DHT22;5555;59.622;16.556;2022-08-01T10:22:23;23.00;99.90
11005;DHT22;5555;59.622;16.556;2022-08-01T10:24:50;22.90;99.90
11005;DHT22;5555;59.622;16.556;2022-08-01T10:27:19;23.00;99.90
11005;DHT22;5555;59.622;16.556;2022-08-01T10:30:02;22.90;99.90
11005;DHT22;5555;59.622;16.556;2022-08-01T10:32:34;22.70;99.90
11005;DHT22;5555;59.622;16.556;2022-08-01T10:35:00;22.70;99.90
11005;DHT22;5555;59.622;16.556;2022-08-01T10:37:26;22.80;99.90
11005;DHT22;5555;59.622;16.556;2022-08-01T10:39:53;23.00;99.90
11005;DHT22;5555;59.622;16.556;2022-08-01T10:42:19;22.50;99.90
11005;DHT22;5555;59.622;16.556;2022-08-01T10:44:45;22.50;99.90
11005;DHT22;5555;59.622;16.556;2022-08-01T10:47:17;22.50;99.90
11005;DHT22;5555;59.622;16.556;2022-08-01T10:49:46;22.40;99.90
11005;DHT22;5555;59.622;16.556;2022-08-01T10:52:19;22.20;99.90
11005;DHT22;5555;59.622;16.556;2022-08-01T10:54:45;22.00;99.90
11005;DHT22;5555;59.622;16.556;2022-08-01T10:57:12;22.00;99.90
11005;DHT22;5555;59.622;16.556;2022-08-01T10:59:51;22.10;99.90
11005;DHT22;5555;59.622;16.556;2022-08-01T11:02:30;21.80;99.90
11005;DHT22;5555;59.622;16.556;2022-08-01T11:07:46;20.80;99.90
11005;DHT22;5555;59.622;16.556;2022-08-01T11:12:53;20.30;99.90
11005;DHT22;5555;59.622;16.556;2022-08-01T11:15:21;20.00;99.90
11005;DHT22;5555;59.622;16.556;2022-08-01T11:17:51;19.90;99.90
11005;DHT22;5555;59.622;16.556;2022-08-01T11:20:22;19.70;99.90
11005;DHT22;5555;59.622;16.556;2022-08-01T11:30:47;19.20;99.90
11005;DHT22;5555;59.622;16.556;2022-08-01T11:33:15;19.20;99.90
11005;DHT22;5555;59.622;16.556;2022-08-01T11:41:24;19.10;99.90
11005;DHT22;5555;59.622;16.556;2022-08-01T11:43:55;18.80;99.90
11005;DHT22;5555;59.622;16.556;2022-08-01T11:46:50;18.70;99.90
11005;DHT22;5555;59.622;16.556;2022-08-01T11:49:23;18.50;99.90
11005;DHT22;5555;59.622;16.556;2022-08-01T11:51:56;18.40;99.90
11005;DHT22;5555;59.622;16.556;2022-08-01T11:54:28;18.30;99.90
11005;DHT22;5555;59.622;16.556;2022-08-01T11:56:59;18.30;99.90
11005;DHT22;5555;59.622;16.556;2022-08-01T11:59:25;18.40;99.90
11005;DHT22;5555;59.622;16.556;2022-08-01T12:01:51;18.30;99.90
11005;DHT22;5555;59.622;16.556;2022-08-01T12:04:17;18.10;99.90
11005;DHT22;5555;59.622;16.556;2022-08-01T12:06:43;18.10;99.90
11005;DHT22;5555;59.622;16.556;2022-08-01T12:09:36;18.10;99.90
11005;DHT22;5555;59.622;16.556;2022-08-01T12:12:01;18.20;99.90
11005;DHT22;5555;59.622;16.556;2022-08-01T12:14:27;18.30;99.90
11005;DHT22;5555;59.622;16.556;2022-08-01T12:19:24;18.50;99.90
11005;DHT22;5555;59.622;16.556;2022-08-01T12:22:09;18.80;99.90
11005;DHT22;5555;59.622;16.556;2022-08-01T12:24:36;19.00;99.90
11005;DHT22;5555;59.622;16.556;2022-08-01T12:27:03;19.10;99.90
11005;DHT22;5555;59.622;16.556;2022-08-01T12:29:41;19.20;99.90
11005;DHT22;5555;59.622;16.556;2022-08-01T12:32:28;18.70;99.90
11005;DHT22;5555;59.622;16.556;2022-08-01T12:34:58;18.50;99.90
11005;DHT22;5555;59.622;16.556;2022-08-01T12:37:26;18.60;99.90
11005;DHT22;5555;59.622;16.556;2022-08-01T12:39:51;18.80;99.90
11005;DHT22;5555;59.622;16.556;2022-08-01T12:42:18;19.00;99.90
11005;DHT22;5555;59.622;16.556;2022-08-01T12:44:48;19.20;99.90
11005;DHT22;5555;59.622;16.556;2022-08-01T12:47:18;19.60;99.90
11005;DHT22;5555;59.622;16.556;2022-08-01T12:49:44;19.80;99.90
11005;DHT22;5555;59.622;16.556;2022-08-01T12:52:11;19.80;99.90
11005;DHT22;5555;59.622;16.556;2022-08-01T12:55:06;19.70;99.90
11005;DHT22;5555;59.622;16.556;2022-08-01T12:57:34;19.60;99.90
11005;DHT22;5555;59.622;16.556;2022-08-01T13:00:29;19.70;99.90
11005;DHT22;5555;59.622;16.556;2022-08-01T13:03:09;19.80;99.90
11005;DHT22;5555;59.622;16.556;2022-08-01T13:05:55;19.90;99.90
11005;DHT22;5555;59.622;16.556;2022-08-01T13:08:23;20.10;99.90
11005;DHT22;5555;59.622;16.556;2022-08-01T13:10:49;20.20;99.90
11005;DHT22;5555;59.622;16.556;2022-08-01T13:13:17;20.30;99.90
11005;DHT22;5555;59.622;16.556;2022-08-01T13:15:45;20.60;99.90
11005;DHT22;5555;59.622;16.556;2022-08-01T13:18:29;20.80;99.90
11005;DHT22;5555;59.622;16.556;2022-08-01T13:21:27;20.90;99.90
11005;DHT22;5555;59.622;16.556;2022-08-01T13:24:13;20.60;99.90
11005;DHT22;5555;59.622;16.556;2022-08-01T13:26:39;20.60;99.90
11005;DHT22;5555;59.622;16.556;2022-08-01T13:29:06;20.70;99.90
11005;DHT22;5555;59.622;16.556;2022-08-01T13:31:33;20.70;99.90
11005;DHT22;5555;59.622;16.556;2022-08-01T13:33:59;20.60;99.90
11005;DHT22;5555;59.622;16.556;2022-08-01T13:36:25;20.60;99.90
11005;DHT22;5555;59.622;16.556;2022-08-01T13:38:54;20.70;99.90
11005;DHT22;5555;59.622;16.556;2022-08-01T13:41:38;21.00;99.90
11005;DHT22;5555;59.622;16.556;2022-08-01T13:44:04;21.00;99.90
11005;DHT22;5555;59.622;16.556;2022-08-01T13:46:30;21.30;99.90
11005;DHT22;5555;59.622;16.556;2022-08-01T13:48:56;21.30;99.90
11005;DHT22;5555;59.622;16.556;2022-08-01T13:51:23;21.30;99.90
11005;DHT22;5555;59.622;16.556;2022-08-01T13:53:49;21.60;99.90
11005;DHT22;5555;59.622;16.556;2022-08-01T13:56:15;22.10;99.90
11005;DHT22;5555;59.622;16.556;2022-08-01T13:58:43;22.30;99.90
11005;DHT22;5555;59.622;16.556;2022-08-01T14:01:09;22.70;99.90
11005;DHT22;5555;59.622;16.556;2022-08-01T14:03:34;22.60;99.90
11005;DHT22;5555;59.622;16.556;2022-08-01T14:06:01;22.80;99.90
11005;DHT22;5555;59.622;16.556;2022-08-01T14:08:26;23.00;99.90
11005;DHT22;5555;59.622;16.556;2022-08-01T14:10:52;23.80;99.90
11005;DHT22;5555;59.622;16.556;2022-08-01T14:13:19;24.40;99.90
11005;DHT22;5555;59.622;16.556;2022-08-01T14:15:44;24.40;99.90
11005;DHT22;5555;59.622;16.556;2022-08-01T14:18:10;24.50;99.90
11005;DHT22;5555;59.622;16.556;2022-08-01T14:20:37;24.10;99.90
11005;DHT22;5555;59.622;16.556;2022-08-01T14:23:03;24.20;99.90
11005;DHT22;5555;59.622;16.556;2022-08-01T14:25:29;24.70;99.90
11005;DHT22;5555;59.622;16.556;2022-08-01T14:27:54;24.50;99.90
11005;DHT22;5555;59.622;16.556;2022-08-01T14:30:20;23.60;99.90
11005;DHT22;5555;59.622;16.556;2022-08-01T14:32:46;23.80;99.90
11005;DHT22;5555;59.622;16.556;2022-08-01T14:35:12;24.80;99.90
11005;DHT22;5555;59.622;16.556;2022-08-01T14:37:37;25.80;99.90
11005;DHT22;5555;59.622;16.556;2022-08-01T14:40:04;26.00;99.90
11005;DHT22;5555;59.622;16.556;2022-08-01T14:42:34;25.70;99.90
11005;DHT22;5555;59.622;16.556;2022-08-01T14:45:00;25.60;99.90
11005;DHT22;5555;59.622;16.556;2022-08-01T14:47:26;26.20;99.90
11005;DHT22;5555;59.622;16.556;2022-08-01T14:49:51;26.80;99.90
11005;DHT22;5555;59.622;16.556;2022-08-01T14:52:17;26.80;99.90
11005;DHT22;5555;59.622;16.556;2022-08-01T14:54:43;26.80;99.90
11005;DHT22;5555;59.622;16.556;2022-08-01T14:57:09;25.60;99.90
11005;DHT22;5555;59.622;16.556;2022-08-01T14:59:35;25.30;99.90
11005;DHT22;5555;59.622;16.556;2022-08-01T15:02:01;25.00;99.90
11005;DHT22;5555;59.622;16.556;2022-08-01T15:04:26;25.20;99.90
11005;DHT22;5555;59.622;16.556;2022-08-01T15:06:53;25.70;99.90
11005;DHT22;5555;59.622;16.556;2022-08-01T15:09:19;25.50;99.90
11005;DHT22;5555;59.622;16.556;2022-08-01T15:11:44;25.00;99.90
11005;DHT22;5555;59.622;16.556;2022-08-01T15:14:12;25.10;99.90
11005;DHT22;5555;59.622;16.556;2022-08-01T15:16:56;24.70;99.90
11005;DHT22;5555;59.622;16.556;2022-08-01T15:19:22;24.90;99.90
11005;DHT22;5555;59.622;16.556;2022-08-01T15:21:47;25.90;99.90
11005;DHT22;5555;59.622;16.556;2022-08-01T15:24:13;26.90;99.90
11005;DHT22;5555;59.622;16.556;2022-08-01T15:26:39;27.70;99.90
11005;DHT22;5555;59.622;16.556;2022-08-01T15:29:05;28.70;99.90
11005;DHT22;5555;59.622;16.556;2022-08-01T15:31:31;29.30;99.90
11005;DHT22;5555;59.622;16.556;2022-08-01T15:33:57;28.40;99.90
11005;DHT22;5555;59.622;16.556;2022-08-01T15:36:23;28.20;99.90
11005;DHT22;5555;59.622;16.556;2022-08-01T15:38:49;27.80;99.90
11005;DHT22;5555;59.622;16.556;2022-08-01T15:41:14;27.80;99.90
11005;DHT22;5555;59.622;16.556;2022-08-01T15:43:40;28.20;99.90
11005;DHT22;5555;59.622;16.556;2022-08-01T15:46:05;28.70;99.90
11005;DHT22;5555;59.622;16.556;2022-08-01T15:48:31;28.70;99.90
11005;DHT22;5555;59.622;16.556;2022-08-01T15:50:57;29.50;99.90
11005;DHT22;5555;59.622;16.556;2022-08-01T15:53:22;30.30;99.40
11005;DHT22;5555;59.622;16.556;2022-08-01T15:55:48;29.30;99.90
11005;DHT22;5555;59.622;16.556;2022-08-01T15:58:14;28.70;99.90
11005;DHT22;5555;59.622;16.556;2022-08-01T16:00:39;28.60;99.50
11005;DHT22;5555;59.622;16.556;2022-08-01T16:03:06;29.30;99.70
11005;DHT22;5555;59.622;16.556;2022-08-01T16:05:31;29.90;99.10
11005;DHT22;5555;59.622;16.556;2022-08-01T16:07:57;29.80;98.40